Main page
Satellite images 15-day forecastsClimateMarine weather Cyclones Lightning AirportsFAQ Newsletter About
Weather : Europe Africa North America South America Asia Australia-Oceania Others
Languages Contact

Eleusina, Greece

latitude: 38-04N, longitude: 023-33E, elevation: 44 m


METAR: LGEL 201350Z 17007KT 9999 FEW030 SCT180 28/14 Q1017
short-TAF: out of date (20450 hours)
long-TAF: LGEL 201100Z 2012/2112 18010KT 9999 FEW025 TEMPO 2024/2110 35010KT

Time: 16:58 (13:58 UTC)

Current weather observation

The report was made 8 minutes ago, at 13:50 UTC  
Wind 07 kt from the South
Temperature 28°C
Humidity 42%
Pressure 1017 hPa
Visibility 10 km or more
Few clouds at a height of 3000 ft
Scattered clouds at a height of 18000 ft

Change units

Forecast

The report was made 2 hours and 46 minutes ago, at 11:12 UTC  
Forecast valid from 20 at 12 UTC to 21 at 12 UTC
Wind 10 kt from the South
Visibility 10 km or more
Few clouds at a height of 2500 ft
Temporary
from 20 at 24 UTC to 21 at 10 UTC
Wind 10 kt from the North
The information on this site is subject to a disclaimer
Weather : Europe Africa North America South America Asia Australia-Oceania Others
Satellite images 15-day forecastsClimateMarine weather Cyclones Lightning AirportsFAQ Languages Contact Newsletter About